sensor_id;sensor_type;location;lat;lon;timestamp;temperature;humidity
10129;DHT22;5104;50.720;7.044;2023-09-30T00:02:00;12.90;99.90
10129;DHT22;5104;50.720;7.044;2023-09-30T00:04:28;12.80;99.90
10129;DHT22;5104;50.720;7.044;2023-09-30T00:06:55;12.80;99.90
10129;DHT22;5104;50.720;7.044;2023-09-30T00:09:24;12.80;99.90
10129;DHT22;5104;50.720;7.044;2023-09-30T00:11:53;12.70;99.90
10129;DHT22;5104;50.720;7.044;2023-09-30T00:14:21;12.70;99.90
10129;DHT22;5104;50.720;7.044;2023-09-30T00:16:49;12.70;99.90
10129;DHT22;5104;50.720;7.044;2023-09-30T00:19:16;12.70;99.90
10129;DHT22;5104;50.720;7.044;2023-09-30T00:21:43;12.60;99.90
10129;DHT22;5104;50.720;7.044;2023-09-30T00:24:10;12.50;99.90
10129;DHT22;5104;50.720;7.044;2023-09-30T00:26:40;12.50;99.90
10129;DHT22;5104;50.720;7.044;2023-09-30T00:29:07;12.40;99.90
10129;DHT22;5104;50.720;7.044;2023-09-30T00:31:36;12.40;99.90
10129;DHT22;5104;50.720;7.044;2023-09-30T00:34:03;12.40;99.90
10129;DHT22;5104;50.720;7.044;2023-09-30T00:36:30;12.40;99.90
10129;DHT22;5104;50.720;7.044;2023-09-30T00:38:57;12.50;99.90
10129;DHT22;5104;50.720;7.044;2023-09-30T00:41:24;12.50;99.90
10129;DHT22;5104;50.720;7.044;2023-09-30T00:43:53;12.40;99.90
10129;DHT22;5104;50.720;7.044;2023-09-30T00:46:26;12.40;99.90
10129;DHT22;5104;50.720;7.044;2023-09-30T00:48:54;12.40;99.90
10129;DHT22;5104;50.720;7.044;2023-09-30T00:51:22;12.40;99.90
10129;DHT22;5104;50.720;7.044;2023-09-30T00:53:51;12.30;99.90
10129;DHT22;5104;50.720;7.044;2023-09-30T00:56:19;12.30;99.90
10129;DHT22;5104;50.720;7.044;2023-09-30T00:58:48;12.20;99.90
10129;DHT22;5104;50.720;7.044;2023-09-30T01:01:18;12.20;99.90
10129;DHT22;5104;50.720;7.044;2023-09-30T01:03:47;12.20;99.90
10129;DHT22;5104;50.720;7.044;2023-09-30T01:06:16;12.20;99.90
10129;DHT22;5104;50.720;7.044;2023-09-30T01:08:44;12.20;99.90
10129;DHT22;5104;50.720;7.044;2023-09-30T01:11:12;12.20;99.90
10129;DHT22;5104;50.720;7.044;2023-09-30T01:13:39;12.20;99.90
10129;DHT22;5104;50.720;7.044;2023-09-30T01:16:09;12.20;99.90
10129;DHT22;5104;50.720;7.044;2023-09-30T01:18:39;12.30;99.90
10129;DHT22;5104;50.720;7.044;2023-09-30T01:21:08;12.20;99.90
10129;DHT22;5104;50.720;7.044;2023-09-30T01:23:37;12.20;99.90
10129;DHT22;5104;50.720;7.044;2023-09-30T01:26:05;12.20;99.90
10129;DHT22;5104;50.720;7.044;2023-09-30T01:28:32;12.20;99.90
10129;DHT22;5104;50.720;7.044;2023-09-30T01:30:59;12.20;99.90
10129;DHT22;5104;50.720;7.044;2023-09-30T01:33:26;12.20;99.90
10129;DHT22;5104;50.720;7.044;2023-09-30T01:35:53;12.20;99.90
10129;DHT22;5104;50.720;7.044;2023-09-30T01:38:21;12.20;99.90
10129;DHT22;5104;50.720;7.044;2023-09-30T01:40:49;12.30;99.90
10129;DHT22;5104;50.720;7.044;2023-09-30T01:43:17;12.30;99.90
10129;DHT22;5104;50.720;7.044;2023-09-30T01:45:43;12.30;99.90
10129;DHT22;5104;50.720;7.044;2023-09-30T01:48:11;12.40;99.90
10129;DHT22;5104;50.720;7.044;2023-09-30T01:50:38;12.40;99.90
10129;DHT22;5104;50.720;7.044;2023-09-30T01:53:05;12.40;99.90
10129;DHT22;5104;50.720;7.044;2023-09-30T01:55:32;12.40;99.90
10129;DHT22;5104;50.720;7.044;2023-09-30T01:58:01;12.30;99.90
10129;DHT22;5104;50.720;7.044;2023-09-30T02:00:28;12.20;99.90
10129;DHT22;5104;50.720;7.044;2023-09-30T02:02:56;12.20;99.90
10129;DHT22;5104;50.720;7.044;2023-09-30T02:05:23;12.10;99.90
10129;DHT22;5104;50.720;7.044;2023-09-30T02:07:50;12.10;99.90
10129;DHT22;5104;50.720;7.044;2023-09-30T02:10:17;12.10;99.90
10129;DHT22;5104;50.720;7.044;2023-09-30T02:12:45;12.20;99.90
10129;DHT22;5104;50.720;7.044;2023-09-30T02:15:14;12.20;99.90
10129;DHT22;5104;50.720;7.044;2023-09-30T02:17:42;12.30;99.90
10129;DHT22;5104;50.720;7.044;2023-09-30T02:20:11;12.40;99.90
10129;DHT22;5104;50.720;7.044;2023-09-30T02:22:41;12.40;99.90
10129;DHT22;5104;50.720;7.044;2023-09-30T02:25:09;12.40;99.90
10129;DHT22;5104;50.720;7.044;2023-09-30T02:27:38;12.40;99.90
10129;DHT22;5104;50.720;7.044;2023-09-30T02:30:08;12.40;99.90
10129;DHT22;5104;50.720;7.044;2023-09-30T02:32:38;12.40;99.90
10129;DHT22;5104;50.720;7.044;2023-09-30T02:35:06;12.50;99.90
10129;DHT22;5104;50.720;7.044;2023-09-30T02:37:34;12.50;99.90
10129;DHT22;5104;50.720;7.044;2023-09-30T02:40:02;12.60;99.90
10129;DHT22;5104;50.720;7.044;2023-09-30T02:42:35;12.60;99.90
10129;DHT22;5104;50.720;7.044;2023-09-30T02:45:02;12.60;99.90
10129;DHT22;5104;50.720;7.044;2023-09-30T02:47:29;12.60;99.90
10129;DHT22;5104;50.720;7.044;2023-09-30T02:49:58;12.60;99.90
10129;DHT22;5104;50.720;7.044;2023-09-30T02:52:25;12.50;99.90
10129;DHT22;5104;50.720;7.044;2023-09-30T02:54:52;12.60;99.90
10129;DHT22;5104;50.720;7.044;2023-09-30T02:57:19;12.60;99.90
10129;DHT22;5104;50.720;7.044;2023-09-30T02:59:47;12.50;99.90
10129;DHT22;5104;50.720;7.044;2023-09-30T03:02:14;12.50;99.90
10129;DHT22;5104;50.720;7.044;2023-09-30T03:04:43;12.40;99.90
10129;DHT22;5104;50.720;7.044;2023-09-30T03:07:12;12.30;99.90
10129;DHT22;5104;50.720;7.044;2023-09-30T03:09:39;12.30;99.90
10129;DHT22;5104;50.720;7.044;2023-09-30T03:12:06;12.30;99.90
10129;DHT22;5104;50.720;7.044;2023-09-30T03:14:34;12.30;99.90
10129;DHT22;5104;50.720;7.044;2023-09-30T03:17:01;12.30;99.90
10129;DHT22;5104;50.720;7.044;2023-09-30T03:19:29;12.30;99.90
10129;DHT22;5104;50.720;7.044;2023-09-30T03:21:56;12.30;99.90
10129;DHT22;5104;50.720;7.044;2023-09-30T03:24:24;12.20;99.90
10129;DHT22;5104;50.720;7.044;2023-09-30T03:26:52;12.10;99.90
10129;DHT22;5104;50.720;7.044;2023-09-30T03:29:19;12.20;99.90
10129;DHT22;5104;50.720;7.044;2023-09-30T03:31:46;12.10;99.90
10129;DHT22;5104;50.720;7.044;2023-09-30T03:34:14;12.10;99.90
10129;DHT22;5104;50.720;7.044;2023-09-30T03:36:42;12.10;99.90
10129;DHT22;5104;50.720;7.044;2023-09-30T03:39:09;12.00;99.90
10129;DHT22;5104;50.720;7.044;2023-09-30T03:41:42;11.90;99.90
10129;DHT22;5104;50.720;7.044;2023-09-30T03:44:10;11.80;99.90
10129;DHT22;5104;50.720;7.044;2023-09-30T03:46:37;11.80;99.90
10129;DHT22;5104;50.720;7.044;2023-09-30T03:49:03;11.80;99.90
10129;DHT22;5104;50.720;7.044;2023-09-30T03:51:31;11.70;99.90
10129;DHT22;5104;50.720;7.044;2023-09-30T03:53:58;11.60;99.90
10129;DHT22;5104;50.720;7.044;2023-09-30T03:56:28;11.50;99.90
10129;DHT22;5104;50.720;7.044;2023-09-30T03:58:56;11.40;99.90
10129;DHT22;5104;50.720;7.044;2023-09-30T04:01:24;11.30;99.90
10129;DHT22;5104;50.720;7.044;2023-09-30T04:03:52;11.30;99.90
10129;DHT22;5104;50.720;7.044;2023-09-30T04:06:21;11.20;99.90
10129;DHT22;5104;50.720;7.044;2023-09-30T04:08:49;11.20;99.90
10129;DHT22;5104;50.720;7.044;2023-09-30T04:11:16;11.20;99.90
10129;DHT22;5104;50.720;7.044;2023-09-30T04:13:45;11.30;99.90
10129;DHT22;5104;50.720;7.044;2023-09-30T04:16:13;11.40;99.90
10129;DHT22;5104;50.720;7.044;2023-09-30T04:18:40;11.40;99.90
10129;DHT22;5104;50.720;7.044;2023-09-30T04:21:07;11.40;99.90
10129;DHT22;5104;50.720;7.044;2023-09-30T04:23:34;11.40;99.90
10129;DHT22;5104;50.720;7.044;2023-09-30T04:26:02;11.50;99.90
10129;DHT22;5104;50.720;7.044;2023-09-30T04:28:30;11.40;99.90
10129;DHT22;5104;50.720;7.044;2023-09-30T04:30:59;11.40;99.90
10129;DHT22;5104;50.720;7.044;2023-09-30T04:33:29;11.40;99.90
10129;DHT22;5104;50.720;7.044;2023-09-30T04:35:56;11.40;99.90
10129;DHT22;5104;50.720;7.044;2023-09-30T04:38:23;11.30;99.90
10129;DHT22;5104;50.720;7.044;2023-09-30T04:40:50;11.20;99.90
10129;DHT22;5104;50.720;7.044;2023-09-30T04:43:17;11.20;99.90
10129;DHT22;5104;50.720;7.044;2023-09-30T04:45:44;11.10;99.90
10129;DHT22;5104;50.720;7.044;2023-09-30T04:48:12;11.10;99.90
10129;DHT22;5104;50.720;7.044;2023-09-30T04:50:40;11.10;99.90
10129;DHT22;5104;50.720;7.044;2023-09-30T04:53:07;11.10;99.90
10129;DHT22;5104;50.720;7.044;2023-09-30T04:55:34;11.20;99.90
10129;DHT22;5104;50.720;7.044;2023-09-30T04:58:03;11.10;99.90
10129;DHT22;5104;50.720;7.044;2023-09-30T05:00:32;11.00;99.90
10129;DHT22;5104;50.720;7.044;2023-09-30T05:03:00;10.90;99.90
10129;DHT22;5104;50.720;7.044;2023-09-30T05:05:28;10.90;99.90
10129;DHT22;5104;50.720;7.044;2023-09-30T05:07:59;10.90;99.90
10129;DHT22;5104;50.720;7.044;2023-09-30T05:10:26;10.80;99.90
10129;DHT22;5104;50.720;7.044;2023-09-30T05:12:55;10.70;99.90
10129;DHT22;5104;50.720;7.044;2023-09-30T05:15:23;10.70;99.90
10129;DHT22;5104;50.720;7.044;2023-09-30T05:17:51;10.70;99.90
10129;DHT22;5104;50.720;7.044;2023-09-30T05:20:18;10.70;99.90
10129;DHT22;5104;50.720;7.044;2023-09-30T05:22:45;10.70;99.90
10129;DHT22;5104;50.720;7.044;2023-09-30T05:25:14;10.60;99.90
10129;DHT22;5104;50.720;7.044;2023-09-30T05:27:42;10.60;99.90
10129;DHT22;5104;50.720;7.044;2023-09-30T05:30:10;10.50;99.90
10129;DHT22;5104;50.720;7.044;2023-09-30T05:32:37;10.50;99.90
10129;DHT22;5104;50.720;7.044;2023-09-30T05:35:05;10.60;99.90
10129;DHT22;5104;50.720;7.044;2023-09-30T05:37:39;10.70;99.90
10129;DHT22;5104;50.720;7.044;2023-09-30T05:40:07;10.70;99.90
10129;DHT22;5104;50.720;7.044;2023-09-30T05:42:44;10.70;99.90
10129;DHT22;5104;50.720;7.044;2023-09-30T05:45:11;10.70;99.90
10129;DHT22;5104;50.720;7.044;2023-09-30T05:47:39;10.70;99.90
10129;DHT22;5104;50.720;7.044;2023-09-30T05:50:07;10.70;99.90
10129;DHT22;5104;50.720;7.044;2023-09-30T05:52:35;10.70;99.90
10129;DHT22;5104;50.720;7.044;2023-09-30T05:55:03;10.80;99.90
10129;DHT22;5104;50.720;7.044;2023-09-30T05:57:30;10.90;99.90
10129;DHT22;5104;50.720;7.044;2023-09-30T05:59:59;10.90;99.90
10129;DHT22;5104;50.720;7.044;2023-09-30T06:02:26;10.90;99.90
10129;DHT22;5104;50.720;7.044;2023-09-30T06:04:53;10.90;99.90
10129;DHT22;5104;50.720;7.044;2023-09-30T06:07:20;10.80;99.90
10129;DHT22;5104;50.720;7.044;2023-09-30T06:09:48;10.80;99.90
10129;DHT22;5104;50.720;7.044;2023-09-30T06:12:15;10.80;99.90
10129;DHT22;5104;50.720;7.044;2023-09-30T06:14:42;10.80;99.90
10129;DHT22;5104;50.720;7.044;2023-09-30T06:17:11;10.90;99.90
10129;DHT22;5104;50.720;7.044;2023-09-30T06:19:38;10.90;99.90
10129;DHT22;5104;50.720;7.044;2023-09-30T06:22:05;11.00;99.90
10129;DHT22;5104;50.720;7.044;2023-09-30T06:24:33;11.10;99.90
10129;DHT22;5104;50.720;7.044;2023-09-30T06:27:00;11.10;99.90
10129;DHT22;5104;50.720;7.044;2023-09-30T06:29:27;11.20;99.90
10129;DHT22;5104;50.720;7.044;2023-09-30T06:31:54;11.20;99.90
10129;DHT22;5104;50.720;7.044;2023-09-30T06:34:23;11.30;99.90
10129;DHT22;5104;50.720;7.044;2023-09-30T06:36:50;11.30;99.90
10129;DHT22;5104;50.720;7.044;2023-09-30T06:39:18;11.40;99.90
10129;DHT22;5104;50.720;7.044;2023-09-30T06:41:45;11.50;99.90
10129;DHT22;5104;50.720;7.044;2023-09-30T06:44:12;11.60;99.90
10129;DHT22;5104;50.720;7.044;2023-09-30T06:46:39;11.70;99.90
10129;DHT22;5104;50.720;7.044;2023-09-30T06:49:06;11.80;99.90
10129;DHT22;5104;50.720;7.044;2023-09-30T06:51:35;11.90;99.90
10129;DHT22;5104;50.720;7.044;2023-09-30T06:54:04;12.00;99.90
10129;DHT22;5104;50.720;7.044;2023-09-30T06:56:33;12.10;99.90
10129;DHT22;5104;50.720;7.044;2023-09-30T06:59:01;12.20;99.90
10129;DHT22;5104;50.720;7.044;2023-09-30T07:01:28;12.40;99.90
10129;DHT22;5104;50.720;7.044;2023-09-30T07:03:55;12.50;99.90
10129;DHT22;5104;50.720;7.044;2023-09-30T07:06:23;12.60;99.90
10129;DHT22;5104;50.720;7.044;2023-09-30T07:08:51;12.70;99.90
10129;DHT22;5104;50.720;7.044;2023-09-30T07:11:27;12.80;99.90
10129;DHT22;5104;50.720;7.044;2023-09-30T07:13:55;12.90;99.90
10129;DHT22;5104;50.720;7.044;2023-09-30T07:16:22;12.90;99.90
10129;DHT22;5104;50.720;7.044;2023-09-30T07:18:49;13.10;99.90
10129;DHT22;5104;50.720;7.044;2023-09-30T07:21:17;13.20;99.90
10129;DHT22;5104;50.720;7.044;2023-09-30T07:23:44;13.30;99.90
10129;DHT22;5104;50.720;7.044;2023-09-30T07:26:12;13.40;99.90
10129;DHT22;5104;50.720;7.044;2023-09-30T07:28:40;13.40;99.90
10129;DHT22;5104;50.720;7.044;2023-09-30T07:31:07;13.60;99.90
10129;DHT22;5104;50.720;7.044;2023-09-30T07:33:34;13.60;99.90
10129;DHT22;5104;50.720;7.044;2023-09-30T07:36:01;13.60;99.90
10129;DHT22;5104;50.720;7.044;2023-09-30T07:38:28;13.70;99.90
10129;DHT22;5104;50.720;7.044;2023-09-30T07:40:55;13.90;99.90
10129;DHT22;5104;50.720;7.044;2023-09-30T07:43:24;14.00;99.90
10129;DHT22;5104;50.720;7.044;2023-09-30T07:45:51;14.00;99.90
10129;DHT22;5104;50.720;7.044;2023-09-30T07:48:18;14.20;99.90
10129;DHT22;5104;50.720;7.044;2023-09-30T07:50:45;14.30;99.90
10129;DHT22;5104;50.720;7.044;2023-09-30T07:53:13;14.40;99.90
10129;DHT22;5104;50.720;7.044;2023-09-30T07:55:40;14.60;99.90
10129;DHT22;5104;50.720;7.044;2023-09-30T07:58:07;14.70;99.90
10129;DHT22;5104;50.720;7.044;2023-09-30T08:00:35;14.70;99.90
10129;DHT22;5104;50.720;7.044;2023-09-30T08:03:03;14.80;99.90
10129;DHT22;5104;50.720;7.044;2023-09-30T08:05:31;14.90;99.90
10129;DHT22;5104;50.720;7.044;2023-09-30T08:07:59;14.90;99.90
10129;DHT22;5104;50.720;7.044;2023-09-30T08:10:27;15.00;99.90
10129;DHT22;5104;50.720;7.044;2023-09-30T08:12:55;15.10;99.90
10129;DHT22;5104;50.720;7.044;2023-09-30T08:15:23;15.10;99.90
10129;DHT22;5104;50.720;7.044;2023-09-30T08:17:52;15.30;99.90
10129;DHT22;5104;50.720;7.044;2023-09-30T08:20:19;15.40;99.90
10129;DHT22;5104;50.720;7.044;2023-09-30T08:22:46;15.60;99.90
10129;DHT22;5104;50.720;7.044;2023-09-30T08:25:13;15.50;99.90
10129;DHT22;5104;50.720;7.044;2023-09-30T08:27:40;15.60;99.90
10129;DHT22;5104;50.720;7.044;2023-09-30T08:30:08;15.60;99.90
10129;DHT22;5104;50.720;7.044;2023-09-30T08:32:36;15.80;99.90
10129;DHT22;5104;50.720;7.044;2023-09-30T08:35:05;15.70;99.90
10129;DHT22;5104;50.720;7.044;2023-09-30T08:37:32;15.80;99.90
10129;DHT22;5104;50.720;7.044;2023-09-30T08:39:59;16.00;99.90
10129;DHT22;5104;50.720;7.044;2023-09-30T08:42:27;16.10;99.90
10129;DHT22;5104;50.720;7.044;2023-09-30T08:44:58;16.20;99.90
10129;DHT22;5104;50.720;7.044;2023-09-30T08:47:26;16.10;99.90
10129;DHT22;5104;50.720;7.044;2023-09-30T08:49:54;16.40;99.90
10129;DHT22;5104;50.720;7.044;2023-09-30T08:52:24;16.60;99.90
10129;DHT22;5104;50.720;7.044;2023-09-30T08:54:53;16.80;99.90
10129;DHT22;5104;50.720;7.044;2023-09-30T08:57:21;16.90;99.90
10129;DHT22;5104;50.720;7.044;2023-09-30T08:59:48;17.00;99.90
10129;DHT22;5104;50.720;7.044;2023-09-30T09:02:16;17.10;99.90
10129;DHT22;5104;50.720;7.044;2023-09-30T09:04:44;17.00;99.90
10129;DHT22;5104;50.720;7.044;2023-09-30T09:07:12;17.00;99.90
10129;DHT22;5104;50.720;7.044;2023-09-30T09:09:41;17.10;99.90
10129;DHT22;5104;50.720;7.044;2023-09-30T09:12:19;17.10;99.90
10129;DHT22;5104;50.720;7.044;2023-09-30T09:14:46;17.10;99.90
10129;DHT22;5104;50.720;7.044;2023-09-30T09:17:13;17.20;99.90
10129;DHT22;5104;50.720;7.044;2023-09-30T09:19:41;17.20;99.90
10129;DHT22;5104;50.720;7.044;2023-09-30T09:22:08;17.30;99.90
10129;DHT22;5104;50.720;7.044;2023-09-30T09:24:36;17.40;1.00
10129;DHT22;5104;50.720;7.044;2023-09-30T09:27:06;17.50;99.90
10129;DHT22;5104;50.720;7.044;2023-09-30T09:29:34;17.50;99.90
10129;DHT22;5104;50.720;7.044;2023-09-30T09:32:10;17.60;99.90
10129;DHT22;5104;50.720;7.044;2023-09-30T09:34:37;17.50;99.90
10129;DHT22;5104;50.720;7.044;2023-09-30T09:37:15;17.70;99.90
10129;DHT22;5104;50.720;7.044;2023-09-30T09:39:55;17.80;99.90
10129;DHT22;5104;50.720;7.044;2023-09-30T09:42:29;17.80;1.00
10129;DHT22;5104;50.720;7.044;2023-09-30T09:45:00;17.70;93.10
10129;DHT22;5104;50.720;7.044;2023-09-30T09:47:29;17.90;99.90
10129;DHT22;5104;50.720;7.044;2023-09-30T09:49:58;18.00;99.90
10129;DHT22;5104;50.720;7.044;2023-09-30T09:52:27;17.90;99.90
10129;DHT22;5104;50.720;7.044;2023-09-30T09:54:54;18.00;99.90
10129;DHT22;5104;50.720;7.044;2023-09-30T09:57:23;17.90;99.90
10129;DHT22;5104;50.720;7.044;2023-09-30T09:59:54;17.80;99.90
10129;DHT22;5104;50.720;7.044;2023-09-30T10:02:22;18.00;99.90
10129;DHT22;5104;50.720;7.044;2023-09-30T10:04:49;18.00;1.00
10129;DHT22;5104;50.720;7.044;2023-09-30T10:07:20;18.00;1.00
10129;DHT22;5104;50.720;7.044;2023-09-30T10:09:50;18.00;99.90
10129;DHT22;5104;50.720;7.044;2023-09-30T10:12:18;18.20;1.00
10129;DHT22;5104;50.720;7.044;2023-09-30T10:14:46;18.20;1.00
10129;DHT22;5104;50.720;7.044;2023-09-30T10:17:15;18.30;99.90
10129;DHT22;5104;50.720;7.044;2023-09-30T10:20:04;18.30;99.90
10129;DHT22;5104;50.720;7.044;2023-09-30T10:22:33;18.40;1.00
10129;DHT22;5104;50.720;7.044;2023-09-30T10:25:00;18.30;99.90
10129;DHT22;5104;50.720;7.044;2023-09-30T10:27:35;18.40;84.80
10129;DHT22;5104;50.720;7.044;2023-09-30T10:30:09;18.40;99.90
10129;DHT22;5104;50.720;7.044;2023-09-30T10:33:10;18.50;1.00
10129;DHT22;5104;50.720;7.044;2023-09-30T10:35:45;18.50;1.00
10129;DHT22;5104;50.720;7.044;2023-09-30T10:38:39;18.60;1.00
10129;DHT22;5104;50.720;7.044;2023-09-30T10:41:07;18.80;1.00
10129;DHT22;5104;50.720;7.044;2023-09-30T10:43:36;18.90;1.00
10129;DHT22;5104;50.720;7.044;2023-09-30T10:46:03;18.90;1.00
10129;DHT22;5104;50.720;7.044;2023-09-30T10:48:37;19.30;99.90
10129;DHT22;5104;50.720;7.044;2023-09-30T10:51:11;19.20;99.90
10129;DHT22;5104;50.720;7.044;2023-09-30T10:53:47;19.10;99.90
10129;DHT22;5104;50.720;7.044;2023-09-30T10:56:17;19.00;1.00
10129;DHT22;5104;50.720;7.044;2023-09-30T10:58:46;19.10;1.00
10129;DHT22;5104;50.720;7.044;2023-09-30T11:01:14;19.30;1.00
10129;DHT22;5104;50.720;7.044;2023-09-30T11:03:43;19.30;1.00
10129;DHT22;5104;50.720;7.044;2023-09-30T11:06:12;19.30;99.90
10129;DHT22;5104;50.720;7.044;2023-09-30T11:08:45;19.30;99.90
10129;DHT22;5104;50.720;7.044;2023-09-30T11:11:12;19.20;99.90
10129;DHT22;5104;50.720;7.044;2023-09-30T11:13:40;19.30;99.90
10129;DHT22;5104;50.720;7.044;2023-09-30T11:16:07;19.30;99.90
10129;DHT22;5104;50.720;7.044;2023-09-30T11:18:34;19.50;99.90
10129;DHT22;5104;50.720;7.044;2023-09-30T11:21:06;19.40;99.90
10129;DHT22;5104;50.720;7.044;2023-09-30T11:23:33;19.40;99.90
10129;DHT22;5104;50.720;7.044;2023-09-30T11:26:01;19.40;99.90
10129;DHT22;5104;50.720;7.044;2023-09-30T11:28:39;19.30;99.90
10129;DHT22;5104;50.720;7.044;2023-09-30T11:31:09;19.20;99.90
10129;DHT22;5104;50.720;7.044;2023-09-30T11:33:51;19.30;99.90
10129;DHT22;5104;50.720;7.044;2023-09-30T11:36:20;19.40;99.90
10129;DHT22;5104;50.720;7.044;2023-09-30T11:38:48;19.50;14.60
10129;DHT22;5104;50.720;7.044;2023-09-30T11:41:16;19.60;1.00
10129;DHT22;5104;50.720;7.044;2023-09-30T11:43:59;19.70;1.00
10129;DHT22;5104;50.720;7.044;2023-09-30T11:46:27;19.90;1.00
10129;DHT22;5104;50.720;7.044;2023-09-30T11:48:58;20.20;1.20
10129;DHT22;5104;50.720;7.044;2023-09-30T11:51:27;20.30;1.00
10129;DHT22;5104;50.720;7.044;2023-09-30T11:53:54;20.20;1.00
10129;DHT22;5104;50.720;7.044;2023-09-30T11:56:23;20.10;1.00
10129;DHT22;5104;50.720;7.044;2023-09-30T11:58:55;20.20;1.00
10129;DHT22;5104;50.720;7.044;2023-09-30T12:01:22;20.10;1.00
10129;DHT22;5104;50.720;7.044;2023-09-30T12:03:51;20.10;1.00
10129;DHT22;5104;50.720;7.044;2023-09-30T12:06:18;20.30;1.00
10129;DHT22;5104;50.720;7.044;2023-09-30T12:08:47;20.20;1.00
10129;DHT22;5104;50.720;7.044;2023-09-30T12:11:14;20.20;1.00
10129;DHT22;5104;50.720;7.044;2023-09-30T12:13:41;20.20;1.00
10129;DHT22;5104;50.720;7.044;2023-09-30T12:16:10;20.00;42.00
10129;DHT22;5104;50.720;7.044;2023-09-30T12:18:38;19.90;99.90
10129;DHT22;5104;50.720;7.044;2023-09-30T12:21:07;20.00;99.90
10129;DHT22;5104;50.720;7.044;2023-09-30T12:23:34;20.10;99.90
10129;DHT22;5104;50.720;7.044;2023-09-30T12:26:03;20.30;99.90
10129;DHT22;5104;50.720;7.044;2023-09-30T12:28:31;20.10;99.90
10129;DHT22;5104;50.720;7.044;2023-09-30T12:30:58;20.20;1.00
10129;DHT22;5104;50.720;7.044;2023-09-30T12:33:27;20.20;1.00
10129;DHT22;5104;50.720;7.044;2023-09-30T12:35:54;20.10;1.00
10129;DHT22;5104;50.720;7.044;2023-09-30T12:38:22;20.00;1.00
10129;DHT22;5104;50.720;7.044;2023-09-30T12:40:51;19.70;1.00
10129;DHT22;5104;50.720;7.044;2023-09-30T12:43:20;19.70;1.00
10129;DHT22;5104;50.720;7.044;2023-09-30T12:45:47;19.60;1.00
10129;DHT22;5104;50.720;7.044;2023-09-30T12:48:14;19.60;1.00
10129;DHT22;5104;50.720;7.044;2023-09-30T12:50:42;19.70;43.80
10129;DHT22;5104;50.720;7.044;2023-09-30T12:53:09;19.70;1.00
10129;DHT22;5104;50.720;7.044;2023-09-30T12:55:36;19.60;1.00
10129;DHT22;5104;50.720;7.044;2023-09-30T12:58:03;19.80;99.90
10129;DHT22;5104;50.720;7.044;2023-09-30T13:00:32;19.70;15.90
10129;DHT22;5104;50.720;7.044;2023-09-30T13:03:00;19.90;99.90
10129;DHT22;5104;50.720;7.044;2023-09-30T13:05:27;20.00;1.00
10129;DHT22;5104;50.720;7.044;2023-09-30T13:07:55;20.10;1.00
10129;DHT22;5104;50.720;7.044;2023-09-30T13:10:21;20.10;1.00
10129;DHT22;5104;50.720;7.044;2023-09-30T13:12:49;20.10;1.00
10129;DHT22;5104;50.720;7.044;2023-09-30T13:15:16;20.10;1.00
10129;DHT22;5104;50.720;7.044;2023-09-30T13:17:45;20.20;1.00
10129;DHT22;5104;50.720;7.044;2023-09-30T13:20:12;20.20;1.00
10129;DHT22;5104;50.720;7.044;2023-09-30T13:22:39;20.30;1.00
10129;DHT22;5104;50.720;7.044;2023-09-30T13:25:06;20.50;1.00
10129;DHT22;5104;50.720;7.044;2023-09-30T13:27:37;20.50;1.00
10129;DHT22;5104;50.720;7.044;2023-09-30T13:30:07;20.50;1.00
10129;DHT22;5104;50.720;7.044;2023-09-30T13:32:35;20.40;1.00
10129;DHT22;5104;50.720;7.044;2023-09-30T13:35:05;20.50;1.00
10129;DHT22;5104;50.720;7.044;2023-09-30T13:37:32;20.40;1.00
10129;DHT22;5104;50.720;7.044;2023-09-30T13:40:00;20.60;1.00
10129;DHT22;5104;50.720;7.044;2023-09-30T13:42:27;20.50;1.00
10129;DHT22;5104;50.720;7.044;2023-09-30T13:44:55;20.40;1.00
10129;DHT22;5104;50.720;7.044;2023-09-30T13:47:24;20.40;1.00
10129;DHT22;5104;50.720;7.044;2023-09-30T13:49:51;20.30;1.00
10129;DHT22;5104;50.720;7.044;2023-09-30T13:52:19;20.30;1.00
10129;DHT22;5104;50.720;7.044;2023-09-30T13:54:46;20.50;1.00
10129;DHT22;5104;50.720;7.044;2023-09-30T13:57:13;20.50;1.00
10129;DHT22;5104;50.720;7.044;2023-09-30T13:59:40;20.60;1.00
10129;DHT22;5104;50.720;7.044;2023-09-30T14:02:08;20.60;1.00
10129;DHT22;5104;50.720;7.044;2023-09-30T14:04:35;20.70;1.00
10129;DHT22;5104;50.720;7.044;2023-09-30T14:07:02;21.10;1.00
10129;DHT22;5104;50.720;7.044;2023-09-30T14:09:32;21.30;1.00
10129;DHT22;5104;50.720;7.044;2023-09-30T14:11:59;21.50;1.00
10129;DHT22;5104;50.720;7.044;2023-09-30T14:14:26;21.50;1.00
10129;DHT22;5104;50.720;7.044;2023-09-30T14:16:53;21.40;1.00
10129;DHT22;5104;50.720;7.044;2023-09-30T14:19:20;21.10;1.00
10129;DHT22;5104;50.720;7.044;2023-09-30T14:21:47;21.10;1.00
10129;DHT22;5104;50.720;7.044;2023-09-30T14:24:14;21.10;1.00
10129;DHT22;5104;50.720;7.044;2023-09-30T14:26:43;21.00;1.00
10129;DHT22;5104;50.720;7.044;2023-09-30T14:29:10;21.10;1.00
10129;DHT22;5104;50.720;7.044;2023-09-30T14:31:38;21.00;1.00
10129;DHT22;5104;50.720;7.044;2023-09-30T14:34:05;20.90;1.00
10129;DHT22;5104;50.720;7.044;2023-09-30T14:36:32;21.00;1.00
10129;DHT22;5104;50.720;7.044;2023-09-30T14:38:59;21.00;1.00
10129;DHT22;5104;50.720;7.044;2023-09-30T14:41:26;20.70;1.00
10129;DHT22;5104;50.720;7.044;2023-09-30T14:43:54;20.60;1.00
10129;DHT22;5104;50.720;7.044;2023-09-30T14:46:21;20.60;29.60
10129;DHT22;5104;50.720;7.044;2023-09-30T14:48:48;20.60;1.00
10129;DHT22;5104;50.720;7.044;2023-09-30T14:51:15;20.60;1.00
10129;DHT22;5104;50.720;7.044;2023-09-30T14:53:46;20.60;1.00
10129;DHT22;5104;50.720;7.044;2023-09-30T14:56:17;20.60;1.00
10129;DHT22;5104;50.720;7.044;2023-09-30T14:58:44;20.60;1.00
10129;DHT22;5104;50.720;7.044;2023-09-30T15:01:13;20.50;1.00
10129;DHT22;5104;50.720;7.044;2023-09-30T15:03:40;20.50;1.00
10129;DHT22;5104;50.720;7.044;2023-09-30T15:06:07;20.60;1.00
10129;DHT22;5104;50.720;7.044;2023-09-30T15:08:34;20.60;1.00
10129;DHT22;5104;50.720;7.044;2023-09-30T15:11:02;20.50;1.00
10129;DHT22;5104;50.720;7.044;2023-09-30T15:13:29;20.30;1.00
10129;DHT22;5104;50.720;7.044;2023-09-30T15:15:56;20.20;1.00
10129;DHT22;5104;50.720;7.044;2023-09-30T15:18:24;20.10;95.90
10129;DHT22;5104;50.720;7.044;2023-09-30T15:20:51;20.10;99.90
10129;DHT22;5104;50.720;7.044;2023-09-30T15:23:18;20.00;99.90
10129;DHT22;5104;50.720;7.044;2023-09-30T15:25:46;20.00;45.40
10129;DHT22;5104;50.720;7.044;2023-09-30T15:28:13;20.00;99.90
10129;DHT22;5104;50.720;7.044;2023-09-30T15:30:40;20.00;99.90
10129;DHT22;5104;50.720;7.044;2023-09-30T15:33:07;20.00;98.60
10129;DHT22;5104;50.720;7.044;2023-09-30T15:35:35;20.10;20.10
10129;DHT22;5104;50.720;7.044;2023-09-30T15:38:02;20.00;10.40
10129;DHT22;5104;50.720;7.044;2023-09-30T15:40:30;20.00;21.50
10129;DHT22;5104;50.720;7.044;2023-09-30T15:42:58;19.90;99.90
10129;DHT22;5104;50.720;7.044;2023-09-30T15:45:25;19.90;99.90
10129;DHT22;5104;50.720;7.044;2023-09-30T15:47:52;19.80;99.90
10129;DHT22;5104;50.720;7.044;2023-09-30T15:50:20;19.70;99.90
10129;DHT22;5104;50.720;7.044;2023-09-30T15:52:49;19.70;99.90
10129;DHT22;5104;50.720;7.044;2023-09-30T15:55:16;19.60;99.90
10129;DHT22;5104;50.720;7.044;2023-09-30T15:57:43;19.60;99.90